createdAt,value
2023-12-13T00:01:19.301Z,1031.3
2023-12-13T00:03:02.707Z,1026
2023-12-13T00:04:46.098Z,1022.6
2023-12-13T00:06:29.494Z,1022.7
2023-12-13T00:08:12.902Z,1022.3
2023-12-13T00:09:56.381Z,1021
2023-12-13T00:11:39.681Z,1020.1
2023-12-13T00:13:23.081Z,1020.5
2023-12-13T00:15:06.944Z,1017
2023-12-13T00:16:50.191Z,1013.7
2023-12-13T00:18:33.590Z,1010.5
2023-12-13T00:20:16.981Z,1007.1
2023-12-13T00:22:00.392Z,1007.7
2023-12-13T00:23:43.775Z,1004.5
2023-12-13T00:25:27.152Z,1001.6
2023-12-13T00:27:10.588Z,1001.8
2023-12-13T00:30:37.044Z,1002.5
2023-12-13T00:32:20.576Z,1000.7
2023-12-13T00:34:03.840Z,999.2
2023-12-13T00:35:47.237Z,998
2023-12-13T00:37:30.639Z,999.6
2023-12-13T00:39:14.018Z,997.7
2023-12-13T00:40:57.425Z,996.2
2023-12-13T00:42:40.820Z,993.2
2023-12-13T00:46:07.317Z,985.3
2023-12-13T00:47:50.745Z,983.8
2023-12-13T00:49:34.079Z,985.5
2023-12-13T00:51:17.485Z,986.6
2023-12-13T00:53:00.967Z,983.4
2023-12-13T00:54:44.274Z,980.6
2023-12-13T00:56:27.682Z,979.1
2023-12-13T01:01:36.928Z,974.1
2023-12-13T01:03:20.318Z,970.3
2023-12-13T01:05:03.705Z,968.2
2023-12-13T01:06:47.126Z,969.3
2023-12-13T01:08:30.517Z,965.5
2023-12-13T01:10:13.913Z,965
2023-12-13T01:11:57.312Z,964.4
2023-12-13T01:15:23.774Z,960
2023-12-13T01:17:07.168Z,957.7
2023-12-13T01:18:50.560Z,955.2
2023-12-13T01:20:34.074Z,952.5
2023-12-13T01:22:17.456Z,951.2
2023-12-13T01:24:00.780Z,949.3
2023-12-13T01:25:44.159Z,948.8
2023-12-13T01:27:27.598Z,948.3
2023-12-13T01:29:11.347Z,948.5
2023-12-13T01:30:54.817Z,945.8
2023-12-13T01:32:38.094Z,941.8
2023-12-13T01:34:21.561Z,939.7
2023-12-13T01:36:04.872Z,941.1
2023-12-13T01:37:48.356Z,942.6
2023-12-13T01:39:31.648Z,944
2023-12-13T01:41:15.094Z,944.5
2023-12-13T01:44:41.603Z,947.2
2023-12-13T01:46:24.974Z,941.7
2023-12-13T01:48:08.348Z,939
2023-12-13T01:49:51.787Z,937.3
2023-12-13T01:51:35.144Z,938.1
2023-12-13T01:53:18.485Z,942.5
2023-12-13T01:55:01.916Z,942.5
2023-12-13T02:00:11.200Z,940
2023-12-13T02:01:54.563Z,940.6
2023-12-13T02:03:37.917Z,940.2
2023-12-13T02:05:21.337Z,938.1
2023-12-13T02:07:04.800Z,933.8
2023-12-13T02:08:48.147Z,930.5
2023-12-13T02:10:31.508Z,930.8
2023-12-13T02:13:58.080Z,921.4
2023-12-13T02:17:24.784Z,918.1
2023-12-13T02:22:34.962Z,919.8
2023-12-13T02:24:18.374Z,918.2
2023-12-13T02:26:01.754Z,916.7
2023-12-13T02:27:45.467Z,915.9
2023-12-13T02:29:28.853Z,919.2
2023-12-13T02:31:12.272Z,919.8
2023-12-13T02:32:55.646Z,917.7
2023-12-13T02:34:39.057Z,916.3
2023-12-13T02:36:22.561Z,918.8
2023-12-13T02:38:05.861Z,920.8
2023-12-13T02:39:49.425Z,920.7
2023-12-13T02:41:32.946Z,919.2
2023-12-13T02:43:16.332Z,920.2
2023-12-13T02:44:59.825Z,923.5
2023-12-13T02:46:43.129Z,924.3
2023-12-13T02:48:26.625Z,920.6
2023-12-13T02:50:09.925Z,920
2023-12-13T02:51:53.305Z,913.8
2023-12-13T02:53:36.713Z,910.1
2023-12-13T02:55:20.405Z,907
2023-12-13T02:57:03.807Z,903
2023-12-13T02:58:47.301Z,900.3
2023-12-13T03:00:30.610Z,898.8
2023-12-13T03:02:14.008Z,900.7
2023-12-13T03:03:57.428Z,900.7
2023-12-13T03:05:40.802Z,899.7
2023-12-13T03:09:07.372Z,894.1
2023-12-13T03:10:50.718Z,892.7
2023-12-13T03:12:34.065Z,892.2
2023-12-13T03:14:17.454Z,892.1
2023-12-13T03:16:00.827Z,891.5
2023-12-13T03:17:44.271Z,890.6
2023-12-13T03:19:27.648Z,894.1
2023-12-13T03:22:54.292Z,897.8
2023-12-13T03:24:37.535Z,897.6
2023-12-13T03:26:20.924Z,899.6
2023-12-13T03:28:04.311Z,901.1
2023-12-13T03:29:47.770Z,899.5
2023-12-13T03:31:31.092Z,900.3
2023-12-13T03:33:14.544Z,896.5
2023-12-13T03:34:57.941Z,890.1
2023-12-13T03:38:24.399Z,891.7
2023-12-13T03:40:07.787Z,895.3
2023-12-13T03:41:51.213Z,897.1
2023-12-13T03:43:34.561Z,897.5
2023-12-13T03:45:17.941Z,895
2023-12-13T03:47:01.479Z,891.6
2023-12-13T03:48:44.746Z,890.8
2023-12-13T03:53:53.979Z,890
2023-12-13T03:55:37.437Z,891.3
2023-12-13T03:57:20.804Z,890.5
2023-12-13T03:59:04.200Z,886.8
2023-12-13T04:00:47.603Z,885.6
2023-12-13T04:02:30.983Z,883.1
2023-12-13T04:04:14.365Z,883.5
2023-12-13T04:09:23.629Z,883.8
2023-12-13T04:11:07.011Z,884
2023-12-13T04:12:50.420Z,881.3
2023-12-13T04:14:33.921Z,884.3
2023-12-13T04:16:17.204Z,889
2023-12-13T04:18:00.614Z,890.1
2023-12-13T04:19:43.996Z,891.6
2023-12-13T04:21:27.373Z,889.5
2023-12-13T04:23:11.090Z,887.4
2023-12-13T04:24:54.512Z,887.1
2023-12-13T04:26:37.897Z,888.2
2023-12-13T04:28:21.268Z,886.4
2023-12-13T04:30:04.713Z,885.6
2023-12-13T04:31:48.082Z,887.7
2023-12-13T04:33:31.472Z,887.2
2023-12-13T04:35:14.950Z,888.4
2023-12-13T04:38:41.342Z,890.2
2023-12-13T04:40:24.744Z,889.2
2023-12-13T04:42:08.125Z,887.8
2023-12-13T04:43:51.519Z,886.7
2023-12-13T04:45:34.925Z,884.4
2023-12-13T04:47:18.313Z,883
2023-12-13T04:49:01.720Z,882.2
2023-12-13T04:54:10.958Z,880.6
2023-12-13T04:55:54.349Z,879.2
2023-12-13T04:57:37.750Z,876.4
2023-12-13T04:59:21.153Z,878.1
2023-12-13T05:01:04.575Z,874.1
2023-12-13T05:02:47.935Z,873.4
2023-12-13T05:04:31.332Z,873.4
2023-12-13T05:09:40.579Z,875.7
2023-12-13T05:11:23.978Z,877.5
2023-12-13T05:13:07.374Z,876.2
2023-12-13T05:14:50.778Z,878.6
2023-12-13T05:16:34.285Z,878.4
2023-12-13T05:18:17.664Z,876.2
2023-12-13T05:20:00.970Z,874.6
2023-12-13T05:21:44.375Z,872.2
2023-12-13T05:25:10.856Z,875.7
2023-12-13T05:26:54.236Z,874.1
2023-12-13T05:28:37.628Z,872
2023-12-13T05:30:21.026Z,872.3
2023-12-13T05:32:04.432Z,872
2023-12-13T05:33:47.803Z,872.8
2023-12-13T05:35:31.224Z,870.6
2023-12-13T05:37:14.628Z,868.2
2023-12-13T05:40:41.073Z,865
2023-12-13T05:42:24.577Z,863
2023-12-13T05:44:07.877Z,864.1
2023-12-13T05:45:51.267Z,863.4
2023-12-13T05:47:34.649Z,864.2
2023-12-13T05:49:18.046Z,861.5
2023-12-13T05:51:01.466Z,858.7
2023-12-13T05:54:27.957Z,856.7
2023-12-13T05:56:11.339Z,859.3
2023-12-13T05:57:54.814Z,857.4
2023-12-13T05:59:38.116Z,855.3
2023-12-13T06:01:21.509Z,851.5
2023-12-13T06:03:05.074Z,853.3
2023-12-13T06:04:48.347Z,857.5
2023-12-13T06:06:31.677Z,857.4
2023-12-13T06:08:15.402Z,854.6
2023-12-13T06:09:58.803Z,852.7
2023-12-13T06:11:42.200Z,851.5
2023-12-13T06:13:25.596Z,850.1
2023-12-13T06:15:09.059Z,849.1
2023-12-13T06:16:52.433Z,846.6
2023-12-13T06:18:35.788Z,846.4
2023-12-13T06:20:19.178Z,845
2023-12-13T06:23:45.634Z,845
2023-12-13T06:25:29.050Z,846.6
2023-12-13T06:27:12.433Z,848
2023-12-13T06:28:55.828Z,849
2023-12-13T06:30:39.221Z,850
2023-12-13T06:32:22.613Z,850.2
2023-12-13T06:34:06.042Z,848.3
2023-12-13T06:37:32.484Z,849
2023-12-13T06:39:15.891Z,847.5
2023-12-13T06:40:59.286Z,848.5
2023-12-13T06:42:42.689Z,850.7
2023-12-13T06:44:26.077Z,852.7
2023-12-13T06:46:09.499Z,851.8
2023-12-13T06:47:52.871Z,851.6
2023-12-13T06:49:36.266Z,853
2023-12-13T06:51:19.982Z,853.1
2023-12-13T06:53:03.361Z,846.3
2023-12-13T06:54:46.759Z,848.6
2023-12-13T06:56:30.235Z,852.3
2023-12-13T06:58:13.538Z,853.7
2023-12-13T06:59:56.981Z,854.4
2023-12-13T07:01:40.629Z,854.6
2023-12-13T07:03:23.802Z,853.4
2023-12-13T07:05:07.473Z,852.7
2023-12-13T07:06:50.836Z,851.1
2023-12-13T07:08:34.257Z,850.4
2023-12-13T07:10:17.630Z,846.7
2023-12-13T07:12:01.173Z,845
2023-12-13T07:13:44.718Z,844.3
2023-12-13T07:15:27.957Z,845.3
2023-12-13T07:17:11.256Z,850.2
2023-12-13T07:20:37.824Z,853.2
2023-12-13T07:22:21.293Z,853.2
2023-12-13T07:24:04.487Z,851.5
2023-12-13T07:25:48.083Z,847.8
2023-12-13T07:27:31.280Z,846.1
2023-12-13T07:29:14.703Z,846.2
2023-12-13T07:30:58.195Z,846.8
2023-12-13T07:32:41.527Z,846.4
2023-12-13T07:34:25.293Z,844.1
2023-12-13T07:36:08.605Z,843.4
2023-12-13T07:37:52.142Z,844.3
2023-12-13T07:39:35.374Z,842.6
2023-12-13T07:41:18.790Z,840.3
2023-12-13T07:43:02.315Z,840.6
2023-12-13T07:44:45.585Z,840.4
2023-12-13T07:46:29.006Z,843
2023-12-13T07:49:55.446Z,847.8
2023-12-13T07:51:38.941Z,847.6
2023-12-13T07:53:22.533Z,845.4
2023-12-13T07:55:05.707Z,842
2023-12-13T07:56:49.296Z,839.2
2023-12-13T07:58:32.536Z,838.6
2023-12-13T08:00:15.937Z,837.7
2023-12-13T08:03:42.264Z,837.6
2023-12-13T08:05:25.673Z,836.5
2023-12-13T08:07:09.212Z,838.2
2023-12-13T08:08:52.715Z,839.4
2023-12-13T08:10:35.963Z,838.6
2023-12-13T08:12:19.551Z,836.1
2023-12-13T08:14:02.789Z,834.1
2023-12-13T08:15:46.332Z,838.8
2023-12-13T08:19:12.528Z,849.4
2023-12-13T08:20:56.215Z,855
2023-12-13T08:22:39.717Z,854.7
2023-12-13T08:24:22.980Z,852.6
2023-12-13T08:26:06.366Z,853.8
2023-12-13T08:27:49.832Z,853.1
2023-12-13T08:29:33.251Z,853
2023-12-13T08:34:42.473Z,847.3
2023-12-13T08:36:25.551Z,844.2
2023-12-13T08:38:09.220Z,840.1
2023-12-13T08:39:52.653Z,839.7
2023-12-13T08:41:35.899Z,840.7
2023-12-13T08:43:19.140Z,846.1
2023-12-13T08:45:02.809Z,851.2
2023-12-13T08:48:29.375Z,911.9
2023-12-13T08:50:12.718Z,924.1
2023-12-13T08:51:56.157Z,925.2
2023-12-13T08:53:39.473Z,915.4
2023-12-13T08:55:22.851Z,908
2023-12-13T08:57:06.274Z,907.5
2023-12-13T08:58:49.716Z,913.3
2023-12-13T09:03:59.035Z,919
2023-12-13T09:05:42.113Z,920.5
2023-12-13T09:07:25.395Z,923
2023-12-13T09:09:09.134Z,920.1
2023-12-13T09:10:52.568Z,915
2023-12-13T09:12:35.966Z,904.5
2023-12-13T09:14:19.199Z,889.2
2023-12-13T09:19:28.612Z,856.3
2023-12-13T09:21:11.642Z,855.7
2023-12-13T09:22:55.038Z,852.7
2023-12-13T09:24:38.704Z,845.7
2023-12-13T09:26:22.162Z,839.3
2023-12-13T09:28:05.497Z,838.3
2023-12-13T09:29:48.788Z,838.1
2023-12-13T09:34:58.198Z,826.3
2023-12-13T09:36:41.590Z,813.5
2023-12-13T09:38:24.892Z,804.6
2023-12-13T09:40:08.125Z,792.5
2023-12-13T09:41:51.765Z,774.7
2023-12-13T09:43:34.918Z,764.3
2023-12-13T09:45:18.634Z,761
2023-12-13T09:48:44.932Z,760.3
2023-12-13T09:50:28.458Z,760.8
2023-12-13T09:52:11.853Z,765.7
2023-12-13T09:53:55.075Z,771.7
2023-12-13T09:57:21.977Z,768.8
2023-12-13T09:59:05.349Z,764.7
2023-12-13T10:04:14.502Z,748.6
2023-12-13T10:05:57.895Z,745.7
2023-12-13T10:07:41.397Z,745.4
2023-12-13T10:09:24.526Z,748.3
2023-12-13T10:11:07.979Z,742.2
2023-12-13T10:12:51.595Z,733.3
2023-12-13T10:14:34.809Z,730.2
2023-12-13T10:18:01.194Z,726.4
2023-12-13T10:19:44.748Z,727.3
2023-12-13T10:21:28.232Z,725.7
2023-12-13T10:23:11.364Z,727.2
2023-12-13T10:24:54.867Z,729.5
2023-12-13T10:26:38.298Z,734.5
2023-12-13T10:28:21.617Z,735
2023-12-13T10:30:05.208Z,736.2
2023-12-13T10:33:31.446Z,743
2023-12-13T10:35:14.902Z,744.8
2023-12-13T10:36:58.288Z,747.8
2023-12-13T10:38:41.988Z,752.5
2023-12-13T10:40:25.009Z,753.5
2023-12-13T10:42:08.414Z,756.1
2023-12-13T10:43:51.900Z,758.1
2023-12-13T10:45:35.193Z,769.3
2023-12-13T10:47:18.905Z,826.5
2023-12-13T10:49:02.497Z,834.2
2023-12-13T10:50:45.852Z,818.3
2023-12-13T10:52:29.269Z,811.4
2023-12-13T10:54:12.697Z,803.2
2023-12-13T10:55:56.188Z,798.6
2023-12-13T10:57:39.512Z,800
2023-12-13T11:02:48.616Z,809
2023-12-13T11:04:32.041Z,812.4
2023-12-13T11:06:15.371Z,816.7
2023-12-13T11:07:59.019Z,826.4
2023-12-13T11:09:42.414Z,839.2
2023-12-13T11:11:25.498Z,852.8
2023-12-13T11:13:09.053Z,859.3
2023-12-13T11:16:35.521Z,861.9
2023-12-13T11:18:19.033Z,870.4
2023-12-13T11:20:02.184Z,923.5
2023-12-13T11:21:45.572Z,978
2023-12-13T11:23:29.057Z,972.3
2023-12-13T11:25:12.439Z,971.1
2023-12-13T11:26:55.822Z,976.1
2023-12-13T11:30:22.316Z,981.3
2023-12-13T11:32:05.639Z,979.3
2023-12-13T11:33:49.037Z,971.1
2023-12-13T11:35:32.638Z,965.1
2023-12-13T11:37:15.847Z,959.5
2023-12-13T11:38:59.372Z,961.6
2023-12-13T11:40:42.805Z,965.5
2023-12-13T11:45:51.922Z,964.3
2023-12-13T11:47:35.508Z,966.2
2023-12-13T11:49:18.695Z,970.3
2023-12-13T11:51:02.268Z,976.6
2023-12-13T11:52:45.608Z,1006.1
2023-12-13T11:54:29.036Z,1020.4
2023-12-13T11:56:12.223Z,994.2
2023-12-13T12:01:21.508Z,948.7
2023-12-13T12:03:04.858Z,940.7
2023-12-13T12:04:48.257Z,937.3
2023-12-13T12:06:31.650Z,935
2023-12-13T12:08:15.284Z,930.6
2023-12-13T12:09:58.630Z,923.8
2023-12-13T12:11:41.883Z,922.1
2023-12-13T12:13:25.242Z,925.8
2023-12-13T12:15:08.983Z,929.6
2023-12-13T12:16:52.501Z,927.8
2023-12-13T12:18:35.751Z,928.1
2023-12-13T12:20:19.123Z,938.1
2023-12-13T12:22:02.622Z,966.8
2023-12-13T12:23:46.011Z,982.5
2023-12-13T12:25:29.588Z,966.7
2023-12-13T12:27:12.958Z,960.1
2023-12-13T12:28:56.571Z,957.6
2023-12-13T12:30:39.967Z,951.5
2023-12-13T12:32:23.212Z,949.1
2023-12-13T12:34:06.609Z,955.1
2023-12-13T12:35:50.235Z,962
2023-12-13T12:37:33.784Z,967.2
2023-12-13T12:39:17.046Z,975.2
2023-12-13T12:41:00.180Z,977.2
2023-12-13T12:42:44.208Z,978.9
2023-12-13T12:44:27.526Z,977.3
2023-12-13T12:46:10.940Z,975.3
2023-12-13T12:47:54.275Z,972.3
2023-12-13T12:49:37.546Z,971.6
2023-12-13T12:51:20.894Z,971.7
2023-12-13T12:53:04.586Z,974.2
2023-12-13T12:54:47.662Z,973.4
2023-12-13T12:56:31.512Z,973.3
2023-12-13T12:58:14.873Z,972.5
2023-12-13T12:59:58.298Z,975.5
2023-12-13T13:01:41.631Z,978.4
2023-12-13T13:03:25.110Z,980.1
2023-12-13T13:05:08.415Z,979.2
2023-12-13T13:06:51.930Z,978.4
2023-12-13T13:08:35.451Z,977.2
2023-12-13T13:13:45.200Z,983.3
2023-12-13T13:15:28.672Z,986.4
2023-12-13T13:17:11.952Z,988.4
2023-12-13T13:18:55.531Z,991.1
2023-12-13T13:22:22.318Z,1034.2
2023-12-13T13:24:05.412Z,1088.4
2023-12-13T13:27:32.148Z,1092.5
2023-12-13T13:29:15.478Z,1078.4
2023-12-13T13:30:58.771Z,1062.1
2023-12-13T13:32:42.102Z,1051
2023-12-13T13:34:25.577Z,1048
2023-12-13T13:36:08.872Z,1050.8
2023-12-13T13:37:52.489Z,1055.6
2023-12-13T13:39:35.673Z,1059.3
2023-12-13T13:41:19.414Z,1063.6
2023-12-13T13:43:02.849Z,1065
2023-12-13T13:44:46.202Z,1066.2
2023-12-13T13:46:29.660Z,1071.1
2023-12-13T13:48:13.000Z,1068.6
2023-12-13T13:49:56.346Z,1067
2023-12-13T13:51:39.781Z,1073.6
2023-12-13T13:53:23.269Z,1078.7
2023-12-13T13:56:49.818Z,1081.4
2023-12-13T13:58:33.023Z,1054.7
2023-12-13T14:00:16.396Z,1047.5
2023-12-13T14:01:59.818Z,1066.8
2023-12-13T14:03:43.222Z,1082.3
2023-12-13T14:05:26.593Z,1128.2
2023-12-13T14:07:10.066Z,1208.8
2023-12-13T14:10:36.479Z,1214
2023-12-13T14:12:19.920Z,1221.6
2023-12-13T14:14:03.447Z,1222.2
2023-12-13T14:15:46.725Z,1221
2023-12-13T14:17:30.189Z,1215.3
2023-12-13T14:19:13.483Z,1214.5
2023-12-13T14:20:56.891Z,1229.8
2023-12-13T14:22:40.255Z,1238.2
2023-12-13T14:26:06.735Z,1232.1
2023-12-13T14:27:50.113Z,1229
2023-12-13T14:29:33.697Z,1230.7
2023-12-13T14:31:16.913Z,1233.8
2023-12-13T14:33:00.374Z,1245.4
2023-12-13T14:34:43.721Z,1250.7
2023-12-13T14:36:27.091Z,1259.2
2023-12-13T14:39:53.621Z,1269.6
2023-12-13T14:41:37.030Z,1275.8
2023-12-13T14:43:20.438Z,1279.4
2023-12-13T14:45:03.768Z,1285.8
2023-12-13T14:46:47.160Z,1295.3
2023-12-13T14:48:30.554Z,1300.5
2023-12-13T14:50:13.971Z,1304.1
2023-12-13T14:51:57.517Z,1311.2
2023-12-13T14:53:41.084Z,1319.5
2023-12-13T14:55:24.446Z,1324.3
2023-12-13T14:57:07.848Z,1327.7
2023-12-13T14:58:51.298Z,1331.8
2023-12-13T15:00:34.664Z,1335.4
2023-12-13T15:02:18.032Z,1337.3
2023-12-13T15:04:01.475Z,1337.2
2023-12-13T15:09:11.011Z,1353.2
2023-12-13T15:10:54.128Z,1357.7
2023-12-13T15:12:37.548Z,1360
2023-12-13T15:14:21.010Z,1362.3
2023-12-13T15:16:04.346Z,1361.4
2023-12-13T15:17:47.658Z,1361.1
2023-12-13T15:19:31.047Z,1365.1
2023-12-13T15:22:57.531Z,1371
2023-12-13T15:24:40.932Z,1376
2023-12-13T15:26:24.309Z,1378.5
2023-12-13T15:28:07.721Z,1383.5
2023-12-13T15:29:51.184Z,1383.6
2023-12-13T15:31:34.523Z,1381.6
2023-12-13T15:33:17.890Z,1380.7
2023-12-13T15:35:01.311Z,1380.7
2023-12-13T15:36:44.996Z,1384.4
2023-12-13T15:38:28.412Z,1382.8
2023-12-13T15:40:11.864Z,1380.4
2023-12-13T15:41:55.357Z,1377.6
2023-12-13T15:43:38.719Z,1379
2023-12-13T15:47:05.426Z,1387.8
2023-12-13T15:48:48.805Z,1388.7
2023-12-13T15:50:32.776Z,1395.8
2023-12-13T15:52:16.022Z,1401.8
2023-12-13T15:53:59.274Z,1403
2023-12-13T15:55:42.702Z,1396.8
2023-12-13T15:57:26.059Z,1398
2023-12-13T15:59:09.683Z,1401.3
2023-12-13T16:00:52.874Z,1398.3
2023-12-13T16:02:36.305Z,1400.7
2023-12-13T16:06:02.849Z,1401.7
2023-12-13T16:07:46.137Z,1405.6
2023-12-13T16:09:29.544Z,1410.3
2023-12-13T16:11:12.953Z,1410.6
2023-12-13T16:12:56.380Z,1411.8
2023-12-13T16:14:39.746Z,1411.6
2023-12-13T16:16:23.131Z,1412.1
2023-12-13T16:18:06.702Z,1418.2
2023-12-13T16:19:50.238Z,1419.9
2023-12-13T16:21:33.705Z,1417.4
2023-12-13T16:23:17.012Z,1417.7
2023-12-13T16:25:00.406Z,1424.8
2023-12-13T16:26:43.808Z,1426.3
2023-12-13T16:28:27.227Z,1423.3
2023-12-13T16:30:10.620Z,1419.2
2023-12-13T16:31:54.013Z,1416.3
2023-12-13T16:33:37.721Z,1416.9
2023-12-13T16:35:21.106Z,1410.3
2023-12-13T16:37:04.512Z,1406.5
2023-12-13T16:38:47.911Z,1373.1
2023-12-13T16:40:31.300Z,1364.8
2023-12-13T16:42:14.688Z,1356.6
2023-12-13T16:43:58.148Z,1350.8
2023-12-13T16:45:41.569Z,1346.6
2023-12-13T16:49:08.146Z,1338.6
2023-12-13T16:50:51.485Z,1336.5
2023-12-13T16:52:34.850Z,1332.5
2023-12-13T16:54:18.159Z,1329.6
2023-12-13T16:56:01.581Z,1324.4
2023-12-13T16:57:44.978Z,1317.7
2023-12-13T16:59:28.355Z,1313.3
2023-12-13T17:01:11.784Z,1308.8
2023-12-13T17:02:55.483Z,1305.3
2023-12-13T17:04:38.845Z,1298.4
2023-12-13T17:06:22.249Z,1294.5
2023-12-13T17:08:05.658Z,1295.4
2023-12-13T17:09:49.147Z,1297
2023-12-13T17:11:32.481Z,1299.2
2023-12-13T17:13:15.831Z,1285.3
2023-12-13T17:14:59.238Z,1277.7
2023-12-13T17:16:42.950Z,1275.7
2023-12-13T17:18:26.314Z,1278.7
2023-12-13T17:20:09.719Z,1295.2
2023-12-13T17:21:53.117Z,1324.4
2023-12-13T17:23:36.609Z,1281.5
2023-12-13T17:25:19.917Z,1263.2
2023-12-13T17:27:03.340Z,1263.1
2023-12-13T17:32:12.543Z,1273.8
2023-12-13T17:33:56.058Z,1272
2023-12-13T17:35:39.394Z,1269
2023-12-13T17:37:22.775Z,1266.6
2023-12-13T17:39:06.160Z,1260.5
2023-12-13T17:40:49.529Z,1258.7
2023-12-13T17:42:32.942Z,1259.1
2023-12-13T17:47:42.248Z,1257.6
2023-12-13T17:49:25.586Z,1258.1
2023-12-13T17:51:08.985Z,1255.8
2023-12-13T17:52:52.451Z,1250.6
2023-12-13T17:54:35.760Z,1247.3
2023-12-13T17:56:19.220Z,1244.4
2023-12-13T17:58:02.606Z,1244.1
2023-12-13T18:03:11.796Z,1239.4
2023-12-13T18:04:55.231Z,1233.8
2023-12-13T18:06:38.597Z,1234.2
2023-12-13T18:08:22.165Z,1229.3
2023-12-13T18:10:05.442Z,1222.7
2023-12-13T18:11:48.902Z,1214.6
2023-12-13T18:13:32.284Z,1205.3
2023-12-13T18:16:58.655Z,1198.5
2023-12-13T18:18:42.083Z,1196.5
2023-12-13T18:20:25.506Z,1199.5
2023-12-13T18:22:08.869Z,1203.8
2023-12-13T18:23:52.243Z,1205.8
2023-12-13T18:25:35.650Z,1207.2
2023-12-13T18:27:19.050Z,1204.5
2023-12-13T18:29:02.458Z,1202.5
2023-12-13T18:30:46.131Z,1202.3
2023-12-13T18:32:29.556Z,1200.3
2023-12-13T18:34:12.931Z,1200.6
2023-12-13T18:35:56.325Z,1199.7
2023-12-13T18:37:39.735Z,1197.7
2023-12-13T18:39:23.137Z,1197.3
2023-12-13T18:41:06.563Z,1196
2023-12-13T18:46:15.768Z,1194.9
2023-12-13T18:47:59.308Z,1194.4
2023-12-13T18:49:42.586Z,1193.1
2023-12-13T18:51:26.054Z,1186.1
2023-12-13T18:53:09.404Z,1179.8
2023-12-13T18:54:52.851Z,1179.1
2023-12-13T18:56:36.145Z,1175.1
2023-12-13T18:58:19.628Z,1169.2
2023-12-13T19:00:03.246Z,1168.2
2023-12-13T19:01:46.834Z,1164.3
2023-12-13T19:03:30.316Z,1133.2
2023-12-13T19:05:13.465Z,828
2023-12-13T19:06:56.822Z,793.1
2023-12-13T19:08:40.403Z,761.6
2023-12-13T19:10:23.628Z,745.3
2023-12-13T19:12:07.098Z,748.2
2023-12-13T19:13:50.751Z,750
2023-12-13T19:15:34.141Z,754.4
2023-12-13T19:17:17.522Z,751.4
2023-12-13T19:19:00.928Z,753.6
2023-12-13T19:20:44.321Z,758.5
2023-12-13T19:22:27.956Z,767
2023-12-13T19:24:11.133Z,769.5
2023-12-13T19:25:54.519Z,770.6
2023-12-13T19:27:38.257Z,774.9
2023-12-13T19:29:21.606Z,784.6
2023-12-13T19:31:05.001Z,794.5
2023-12-13T19:32:48.402Z,799.3
2023-12-13T19:34:31.844Z,807.8
2023-12-13T19:36:15.209Z,812
2023-12-13T19:37:58.595Z,817
2023-12-13T19:39:42.012Z,823.3
2023-12-13T19:43:08.522Z,835
2023-12-13T19:44:51.868Z,840.7
2023-12-13T19:46:35.254Z,848.8
2023-12-13T19:48:18.815Z,851.8
2023-12-13T19:50:02.088Z,855.2
2023-12-13T19:51:45.457Z,859
2023-12-13T19:53:28.838Z,864.4
2023-12-13T19:55:12.247Z,870.6
2023-12-13T19:56:55.954Z,873.8
2023-12-13T19:58:39.365Z,877.1
2023-12-13T20:00:22.881Z,878.7
2023-12-13T20:02:06.163Z,881.1
2023-12-13T20:03:49.557Z,884.8
2023-12-13T20:05:32.942Z,887.2
2023-12-13T20:07:16.349Z,888.7
2023-12-13T20:08:59.741Z,888.7
2023-12-13T20:12:26.194Z,892
2023-12-13T20:14:09.602Z,894.2
2023-12-13T20:15:52.997Z,894.5
2023-12-13T20:17:36.403Z,895.6
2023-12-13T20:19:19.841Z,895.3
2023-12-13T20:21:03.189Z,896.1
2023-12-13T20:22:46.577Z,901.6
2023-12-13T20:27:55.814Z,908.4
2023-12-13T20:29:39.336Z,909.5
2023-12-13T20:31:22.689Z,910.7
2023-12-13T20:33:06.017Z,912.4
2023-12-13T20:34:49.425Z,913.8
2023-12-13T20:36:32.807Z,913.2
2023-12-13T20:38:16.207Z,913.4
2023-12-13T20:39:59.605Z,914.4
2023-12-13T20:41:43.306Z,917.3
2023-12-13T20:43:26.724Z,917.8
2023-12-13T20:45:10.093Z,917
2023-12-13T20:46:53.606Z,918.1
2023-12-13T20:48:37.014Z,915.3
2023-12-13T20:50:20.283Z,913.2
2023-12-13T20:52:03.688Z,915.1
2023-12-13T20:53:47.093Z,915.2
2023-12-13T20:55:30.807Z,915.9
2023-12-13T20:57:14.199Z,920.8
2023-12-13T20:58:57.580Z,924.5
2023-12-13T21:00:40.991Z,956.7
2023-12-13T21:02:24.418Z,967.6
2023-12-13T21:04:07.773Z,974.2
2023-12-13T21:05:51.183Z,976.4
2023-12-13T21:07:34.577Z,969.3
2023-12-13T21:09:18.312Z,960.3
2023-12-13T21:11:01.670Z,951.5
2023-12-13T21:12:45.076Z,949.1
2023-12-13T21:14:28.506Z,947.3
2023-12-13T21:16:11.871Z,944.6
2023-12-13T21:17:55.322Z,941.5
2023-12-13T21:19:38.664Z,941.4
2023-12-13T21:21:22.050Z,943.2
2023-12-13T21:23:05.772Z,941.2
2023-12-13T21:24:49.169Z,939.1
2023-12-13T21:26:32.607Z,937.4
2023-12-13T21:28:15.951Z,939.6
2023-12-13T21:29:59.387Z,937.2
2023-12-13T21:31:42.746Z,934.2
2023-12-13T21:33:26.195Z,931.2
2023-12-13T21:35:09.543Z,927.2
2023-12-13T21:38:36.079Z,922.6
2023-12-13T21:40:19.414Z,917.8
2023-12-13T21:42:02.825Z,918.1
2023-12-13T21:43:46.201Z,919.3
2023-12-13T21:45:29.592Z,917.6
2023-12-13T21:47:13.034Z,916.7
2023-12-13T21:48:56.394Z,915.1
2023-12-13T21:54:05.648Z,903.8
2023-12-13T21:55:49.225Z,900.6
2023-12-13T21:57:32.500Z,899.3
2023-12-13T21:59:16.018Z,897.4
2023-12-13T22:00:59.221Z,893.2
2023-12-13T22:02:42.675Z,888.8
2023-12-13T22:04:26.310Z,889.4
2023-12-13T22:09:35.270Z,889.1
2023-12-13T22:11:18.714Z,890.4
2023-12-13T22:13:02.076Z,891.2
2023-12-13T22:14:45.496Z,893.5
2023-12-13T22:16:28.936Z,895.8
2023-12-13T22:18:12.438Z,896.5
2023-12-13T22:19:55.683Z,896.6
2023-12-13T22:21:39.044Z,893.2
2023-12-13T22:25:05.628Z,887
2023-12-13T22:26:48.920Z,885.1
2023-12-13T22:28:32.281Z,882.2
2023-12-13T22:30:15.698Z,878.2
2023-12-13T22:31:59.133Z,878
2023-12-13T22:33:42.625Z,880.3
2023-12-13T22:35:25.870Z,881.2
2023-12-13T22:40:35.111Z,881.4
2023-12-13T22:42:18.508Z,880.4
2023-12-13T22:44:02.058Z,877.4
2023-12-13T22:45:45.304Z,870.7
2023-12-13T22:47:28.695Z,862
2023-12-13T22:49:12.103Z,857.3
2023-12-13T22:50:55.563Z,857
2023-12-13T22:52:38.978Z,886.6
2023-12-13T22:54:22.595Z,910.2
2023-12-13T22:56:06.092Z,909.2
2023-12-13T22:57:49.469Z,913.2
2023-12-13T22:59:33.140Z,915.1
2023-12-13T23:01:16.182Z,921.3
2023-12-13T23:02:59.773Z,924.5
2023-12-13T23:04:43.130Z,925.7
2023-12-13T23:06:26.644Z,927.1
2023-12-13T23:09:53.019Z,929.9
2023-12-13T23:11:36.240Z,931
2023-12-13T23:13:19.756Z,932.5
2023-12-13T23:15:03.064Z,931.2
2023-12-13T23:16:46.435Z,933
2023-12-13T23:18:29.956Z,934.4
2023-12-13T23:20:13.287Z,930.1
2023-12-13T23:23:39.717Z,935
2023-12-13T23:25:23.089Z,933.4
2023-12-13T23:27:06.685Z,932.2
2023-12-13T23:28:49.941Z,932.7
2023-12-13T23:30:33.331Z,933.3
2023-12-13T23:32:16.676Z,933.8
2023-12-13T23:34:00.058Z,933
2023-12-13T23:35:43.627Z,936.6
2023-12-13T23:37:27.363Z,937
2023-12-13T23:39:10.642Z,937.4
2023-12-13T23:40:54.155Z,933.7
2023-12-13T23:42:37.472Z,934.6
2023-12-13T23:44:20.762Z,937
2023-12-13T23:46:04.351Z,936.3
2023-12-13T23:47:47.594Z,934
2023-12-13T23:49:30.955Z,934.1
2023-12-13T23:52:57.615Z,928
2023-12-13T23:54:40.902Z,926
2023-12-13T23:56:24.243Z,925.2
2023-12-13T23:58:07.675Z,923.2
2023-12-13T23:59:51.110Z,922.8
